Time;durP1;ratioP1;P1;durP2;ratioP2;P2;SDS_P1;SDS_P2;PMS_P1;PMS_P2;Temp;Humidity;BMP_temperature;BMP_pressure;BME280_temperature;BME280_humidity;BME280_pressure;Samples;Min_cycle;Max_cycle;Signal;HPM_P1;HPM_P2
2022/12/24 00:00:56;;;;;;;16.23;5.45;;;20.70;72.70;;;;;;5039396;28;20243;-46
2022/12/24 00:03:24;;;;;;;13.50;5.18;;;20.70;72.70;;;;;;5032982;28;20319;-45
2022/12/24 00:05:50;;;;;;;18.75;5.18;;;20.70;72.80;;;;;;5026803;28;20409;-45
2022/12/24 00:08:17;;;;;;;15.52;4.85;;;20.70;72.80;;;;;;5022318;28;20197;-43
2022/12/24 00:10:44;;;;;;;21.42;7.22;;;20.70;72.80;;;;;;5029198;28;20249;-43
2022/12/24 00:13:10;;;;;;;10.23;4.55;;;20.60;72.70;;;;;;5029700;28;20253;-45
2022/12/24 00:15:38;;;;;;;13.93;4.68;;;20.60;72.70;;;;;;5036297;28;20227;-47
2022/12/24 00:18:05;;;;;;;12.43;4.72;;;20.60;72.70;;;;;;5030273;28;20196;-44
2022/12/24 00:20:32;;;;;;;8.05;4.13;;;20.60;72.80;;;;;;5042311;28;20626;-42
2022/12/24 00:22:58;;;;;;;12.35;5.82;;;20.60;72.70;;;;;;5043246;28;20656;-46
2022/12/24 00:25:25;;;;;;;13.63;5.45;;;20.60;72.70;;;;;;5034422;28;20664;-43
2022/12/24 00:27:52;;;;;;;13.40;5.13;;;20.50;72.60;;;;;;5036075;28;20661;-45
2022/12/24 00:30:18;;;;;;;13.63;5.90;;;20.50;72.60;;;;;;5040568;28;20514;-46
2022/12/24 00:32:47;;;;;;;16.08;5.70;;;20.50;72.50;;;;;;5023240;28;20668;-46
2022/12/24 00:35:13;;;;;;;9.85;4.35;;;20.50;72.60;;;;;;5019377;28;20197;-45
2022/12/24 00:37:40;;;;;;;12.43;5.60;;;20.50;72.50;;;;;;5027448;28;20959;-45
2022/12/24 00:40:08;;;;;;;12.90;4.85;;;20.40;73.20;;;;;;5028792;28;20196;-48
2022/12/24 00:42:35;;;;;;;12.57;4.57;;;20.40;72.40;;;;;;5034976;28;20215;-47
2022/12/24 00:45:01;;;;;;;16.02;4.28;;;20.40;72.40;;;;;;5041393;28;20223;-44
2022/12/24 00:47:28;;;;;;;16.55;4.63;;;20.40;72.40;;;;;;5035473;28;20203;-43
2022/12/24 00:49:56;;;;;;;9.07;3.90;;;20.40;72.40;;;;;;5024500;28;20202;-44
2022/12/24 00:52:23;;;;;;;13.32;4.25;;;20.40;72.40;;;;;;5029665;28;20193;-43
2022/12/24 00:54:49;;;;;;;10.35;4.78;;;20.40;72.40;;;;;;5025341;28;20248;-43
2022/12/24 00:57:17;;;;;;;8.23;4.68;;;20.40;72.40;;;;;;5018862;28;20225;-46
2022/12/24 00:59:44;;;;;;;14.02;3.88;;;20.30;72.30;;;;;;5029792;28;20249;-43
2022/12/24 01:02:10;;;;;;;8.88;4.70;;;20.30;72.30;;;;;;5022259;28;20203;-44
2022/12/24 01:07:23;;;;;;;14.07;3.80;;;20.30;72.30;;;;;;5034886;28;20322;-45
2022/12/24 01:09:49;;;;;;;8.38;3.80;;;20.30;72.30;;;;;;5034508;28;20200;-43
2022/12/24 01:12:16;;;;;;;7.03;4.10;;;20.30;72.30;;;;;;5030478;28;20222;-42
2022/12/24 01:14:43;;;;;;;16.42;4.18;;;20.30;72.30;;;;;;5038372;28;20243;-42
2022/12/24 01:17:09;;;;;;;9.25;4.28;;;20.20;72.30;;;;;;5034211;28;20635;-42
2022/12/24 01:19:36;;;;;;;9.23;3.45;;;20.20;72.30;;;;;;5025381;28;20212;-43
2022/12/24 01:22:03;;;;;;;8.43;3.97;;;20.30;72.30;;;;;;5033173;28;20188;-43
2022/12/24 01:24:31;;;;;;;9.70;3.50;;;20.40;72.00;;;;;;5032217;28;20197;-43
2022/12/24 01:26:57;;;;;;;11.82;3.50;;;20.40;71.70;;;;;;5038437;28;20208;-44
2022/12/24 01:29:24;;;;;;;8.70;3.97;;;20.50;71.60;;;;;;5037860;28;20210;-42
2022/12/24 01:31:51;;;;;;;7.85;4.30;;;20.50;71.50;;;;;;5031696;28;20201;-42
2022/12/24 01:34:17;;;;;;;11.25;3.65;;;20.50;71.40;;;;;;5036217;28;20265;-42
2022/12/24 01:36:44;;;;;;;10.13;4.30;;;20.50;71.30;;;;;;5038314;28;20289;-42
2022/12/24 01:39:11;;;;;;;5.20;2.90;;;20.50;71.30;;;;;;5034183;28;20258;-43
2022/12/24 01:44:26;;;;;;;6.50;3.80;;;20.40;71.10;;;;;;5030649;28;20216;-42
2022/12/24 01:46:57;;;;;;;8.73;3.00;;;20.40;71.20;;;;;;5026953;28;20215;-42
2022/12/24 01:49:24;;;;;;;6.68;3.70;;;20.40;71.20;;;;;;5037217;28;20762;-42
2022/12/24 01:51:56;;;;;;;7.82;3.80;;;20.40;71.20;;;;;;5027885;28;20196;-41
2022/12/24 01:54:26;;;;;;;5.13;3.40;;;20.40;71.20;;;;;;5028064;28;20204;-45
2022/12/24 01:56:58;;;;;;;7.88;3.55;;;20.40;71.30;;;;;;5030831;28;20587;-43
2022/12/24 01:59:25;;;;;;;10.52;3.40;;;20.40;71.20;;;;;;5036136;28;20199;-42
2022/12/24 02:01:54;;;;;;;7.05;2.75;;;20.40;71.30;;;;;;5032429;28;20192;-43
2022/12/24 02:04:30;;;;;;;13.18;3.05;;;20.30;71.10;;;;;;5034271;28;20700;-44
2022/12/24 02:06:57;;;;;;;11.13;4.10;;;20.30;71.20;;;;;;5034776;28;20196;-42
2022/12/24 02:09:24;;;;;;;8.38;3.50;;;20.30;71.30;;;;;;5032242;28;20200;-44
2022/12/24 02:11:51;;;;;;;12.00;2.97;;;20.30;71.20;;;;;;5031311;28;20193;-42
2022/12/24 02:14:19;;;;;;;4.80;2.50;;;20.30;71.30;;;;;;5034412;28;20193;-44
2022/12/24 02:16:53;;;;;;;8.90;4.60;;;20.30;71.30;;;;;;5024823;28;20277;-44
2022/12/24 02:19:46;;;;;;;10.65;3.13;;;20.20;71.30;;;;;;5031541;28;20772;-45
2022/12/24 02:22:17;;;;;;;5.95;2.78;;;20.20;71.30;;;;;;5027465;28;20197;-45
2022/12/24 02:25:11;;;;;;;5.72;3.35;;;20.20;71.40;;;;;;5034756;28;20195;-45
2022/12/24 02:27:51;;;;;;;8.43;2.90;;;20.20;71.30;;;;;;5029619;28;20195;-42
2022/12/24 02:30:21;;;;;;;3.67;2.60;;;20.20;71.30;;;;;;5028154;28;20224;-44
2022/12/24 02:33:01;;;;;;;5.97;3.22;;;20.20;71.40;;;;;;5027761;28;20198;-43
2022/12/24 02:35:36;;;;;;;7.25;3.53;;;20.20;71.40;;;;;;5029278;28;20200;-41
2022/12/24 02:38:08;;;;;;;5.65;3.22;;;20.20;71.40;;;;;;5036316;28;20212;-42
2022/12/24 02:40:40;;;;;;;5.70;2.67;;;20.10;71.30;;;;;;5028762;28;20302;-44
2022/12/24 02:43:11;;;;;;;6.70;2.83;;;20.10;71.40;;;;;;5032273;28;20197;-42
2022/12/24 02:45:42;;;;;;;4.15;3.00;;;20.10;71.40;;;;;;5028509;28;20224;-42
2022/12/24 02:48:10;;;;;;;5.18;2.88;;;20.10;71.40;;;;;;5027410;28;20200;-42
2022/12/24 02:50:36;;;;;;;5.20;2.88;;;20.10;71.40;;;;;;5033562;28;20581;-42
2022/12/24 02:53:03;;;;;;;8.00;3.22;;;20.10;71.40;;;;;;5026555;28;20262;-44
2022/12/24 02:55:41;;;;;;;4.53;2.75;;;20.10;71.40;;;;;;5031842;28;20209;-42
2022/12/24 02:58:18;;;;;;;8.18;3.90;;;20.10;71.50;;;;;;5023761;28;20223;-42
2022/12/24 03:01:15;;;;;;;6.93;2.85;;;20.10;71.40;;;;;;5026996;28;20195;-44
2022/12/24 03:03:54;;;;;;;5.85;2.90;;;20.10;71.50;;;;;;5025055;28;20203;-44
2022/12/24 03:06:36;;;;;;;7.28;3.25;;;20.00;71.40;;;;;;5025962;28;20234;-42
2022/12/24 03:09:10;;;;;;;6.28;3.83;;;20.00;71.40;;;;;;5026206;28;20192;-43
2022/12/24 03:11:42;;;;;;;6.30;3.03;;;20.00;71.40;;;;;;5024740;28;20195;-43
2022/12/24 03:14:09;;;;;;;4.18;2.50;;;20.00;71.40;;;;;;5030544;28;20207;-43
2022/12/24 03:16:37;;;;;;;5.65;2.92;;;20.00;71.40;;;;;;5032591;28;20709;-41
2022/12/24 03:19:04;;;;;;;5.90;2.70;;;20.00;71.40;;;;;;5030861;28;20200;-43
2022/12/24 03:21:34;;;;;;;4.22;2.58;;;20.00;71.50;;;;;;5033088;28;20203;-43
2022/12/24 03:24:01;;;;;;;4.55;2.70;;;20.00;71.50;;;;;;5025585;28;20622;-43
2022/12/24 03:26:31;;;;;;;6.75;2.78;;;20.00;71.50;;;;;;5029797;28;20596;-41
2022/12/24 03:28:59;;;;;;;4.10;2.30;;;20.00;71.60;;;;;;5029232;28;20200;-43
2022/12/24 03:31:26;;;;;;;9.68;2.90;;;19.90;71.50;;;;;;5025448;28;20712;-43
2022/12/24 03:33:54;;;;;;;5.50;2.97;;;20.00;71.50;;;;;;5023445;28;20607;-42
2022/12/24 03:36:20;;;;;;;4.63;2.60;;;19.90;71.40;;;;;;5029236;28;20596;-43
2022/12/24 03:38:47;;;;;;;5.68;2.75;;;19.90;71.50;;;;;;5026594;28;20207;-46
2022/12/24 03:41:14;;;;;;;5.70;3.17;;;19.90;71.50;;;;;;5027623;28;20200;-43
2022/12/24 03:43:40;;;;;;;5.55;2.58;;;19.90;71.50;;;;;;5032590;28;20245;-43
2022/12/24 03:46:08;;;;;;;5.88;2.60;;;19.90;71.50;;;;;;5031016;28;20257;-42
2022/12/24 03:48:35;;;;;;;6.45;2.75;;;19.90;71.50;;;;;;5029849;28;20594;-44
2022/12/24 03:51:04;;;;;;;5.95;3.03;;;19.90;71.50;;;;;;5033172;28;20563;-42
2022/12/24 03:53:31;;;;;;;3.53;2.63;;;19.90;71.50;;;;;;5022570;28;20200;-41
2022/12/24 03:55:58;;;;;;;4.60;2.40;;;19.90;71.50;;;;;;5032929;28;20234;-42
2022/12/24 03:58:25;;;;;;;7.50;2.67;;;19.90;71.40;;;;;;5031388;28;20227;-42
2022/12/24 04:00:53;;;;;;;4.20;2.35;;;19.90;71.40;;;;;;5029069;28;20193;-44
2022/12/24 04:03:20;;;;;;;4.65;2.67;;;19.80;71.30;;;;;;5029201;28;20199;-46
2022/12/24 04:05:47;;;;;;;4.88;2.42;;;19.90;71.50;;;;;;5030190;28;20283;-44
2022/12/24 04:08:15;;;;;;;5.20;3.35;;;19.90;71.40;;;;;;5028682;28;20206;-41
2022/12/24 04:10:41;;;;;;;4.85;2.90;;;19.90;71.40;;;;;;5023105;28;20206;-42
2022/12/24 04:13:08;;;;;;;3.95;1.80;;;19.80;71.30;;;;;;5024947;28;20227;-45
2022/12/24 04:15:35;;;;;;;2.95;2.30;;;19.90;71.40;;;;;;5031918;28;20199;-42
2022/12/24 04:18:01;;;;;;;6.75;3.13;;;19.80;71.30;;;;;;5029408;28;20211;-41
2022/12/24 04:20:28;;;;;;;3.00;1.90;;;19.80;71.40;;;;;;5026868;28;20270;-41
2022/12/24 04:22:54;;;;;;;5.70;2.42;;;19.90;72.20;;;;;;5029238;28;20242;-43
2022/12/24 04:25:22;;;;;;;6.10;3.00;;;19.80;71.30;;;;;;5023567;28;20199;-43
2022/12/24 04:27:49;;;;;;;5.20;2.60;;;19.80;71.30;;;;;;5027508;28;20265;-42
2022/12/24 04:30:16;;;;;;;3.53;2.15;;;19.80;71.20;;;;;;5033924;28;20187;-43
2022/12/24 04:32:42;;;;;;;3.08;2.10;;;19.80;71.20;;;;;;5027097;28;20196;-43
2022/12/24 04:35:09;;;;;;;4.78;1.92;;;19.80;71.20;;;;;;5033406;28;20200;-45
2022/12/24 04:37:36;;;;;;;1.95;1.75;;;19.80;71.20;;;;;;5032422;28;20634;-43
2022/12/24 04:40:03;;;;;;;4.85;2.63;;;19.80;71.30;;;;;;5027083;28;20264;-45
2022/12/24 04:42:31;;;;;;;6.57;2.97;;;19.80;71.30;;;;;;5031157;28;20203;-42
2022/12/24 04:44:58;;;;;;;3.50;2.10;;;19.80;71.30;;;;;;5039742;28;20207;-43
2022/12/24 04:47:24;;;;;;;3.50;1.90;;;19.70;71.20;;;;;;5034689;28;20246;-43
2022/12/24 04:49:51;;;;;;;3.97;2.50;;;19.70;71.20;;;;;;5040567;28;20204;-43
2022/12/24 04:52:18;;;;;;;8.93;2.70;;;19.70;71.30;;;;;;5032360;28;20576;-43
2022/12/24 04:54:44;;;;;;;4.15;2.60;;;19.70;71.30;;;;;;5027170;28;20187;-44
2022/12/24 04:57:11;;;;;;;5.15;2.20;;;19.70;71.30;;;;;;5032209;28;20622;-44
2022/12/24 04:59:39;;;;;;;3.25;1.95;;;19.70;71.40;;;;;;5033280;28;20197;-44
2022/12/24 05:02:05;;;;;;;3.63;2.03;;;19.70;71.50;;;;;;5029259;28;20220;-42
2022/12/24 05:04:32;;;;;;;2.70;2.00;;;19.80;71.40;;;;;;5036375;28;20611;-44
2022/12/24 05:06:59;;;;;;;3.80;2.00;;;19.90;71.20;;;;;;5035735;28;20521;-42
2022/12/24 05:09:25;;;;;;;3.80;2.20;;;20.00;70.80;;;;;;5035605;28;20203;-45
2022/12/24 05:11:52;;;;;;;3.15;2.20;;;20.10;70.60;;;;;;5031188;28;20196;-42
2022/12/24 05:14:19;;;;;;;4.60;2.25;;;20.20;69.90;;;;;;5037877;28;20205;-42
2022/12/24 05:16:47;;;;;;;3.15;1.75;;;20.40;69.50;;;;;;5031458;28;20188;-42
2022/12/24 05:19:13;;;;;;;2.70;1.42;;;20.50;69.20;;;;;;5033828;28;20271;-46
2022/12/24 05:21:40;;;;;;;5.43;2.47;;;20.60;68.90;;;;;;5030018;28;20229;-42
2022/12/24 05:26:54;;;;;;;3.67;1.70;;;20.80;68.50;;;;;;5034376;28;20268;-46
2022/12/24 05:29:21;;;;;;;3.78;2.22;;;20.90;68.30;;;;;;5034975;28;20219;-47
2022/12/24 05:31:49;;;;;;;3.00;1.90;;;20.90;68.20;;;;;;5027876;28;20254;-49
2022/12/24 05:34:16;;;;;;;2.72;2.53;;;21.00;68.10;;;;;;5036492;28;20193;-49
2022/12/24 05:36:44;;;;;;;5.75;2.60;;;21.10;67.90;;;;;;5031512;28;20251;-41
2022/12/24 05:39:14;;;;;;;2.40;2.00;;;21.10;67.90;;;;;;5034219;28;20222;-43
2022/12/24 05:41:40;;;;;;;2.50;1.75;;;21.10;67.70;;;;;;5029319;28;20633;-43
2022/12/24 05:44:07;;;;;;;3.05;1.80;;;21.10;67.90;;;;;;5035363;28;20603;-45
2022/12/24 05:46:34;;;;;;;2.70;1.90;;;21.10;67.90;;;;;;5028534;28;20601;-43
2022/12/24 05:49:02;;;;;;;3.00;1.52;;;21.10;67.90;;;;;;5029147;28;20647;-44
2022/12/24 05:51:28;;;;;;;2.28;1.58;;;21.00;67.80;;;;;;5035661;28;20766;-43
2022/12/24 05:53:55;;;;;;;4.50;1.83;;;21.00;67.90;;;;;;5027454;28;20561;-45
2022/12/24 05:56:23;;;;;;;3.50;1.70;;;21.10;67.90;;;;;;5031715;28;20196;-47
2022/12/24 05:58:52;;;;;;;2.30;1.90;;;21.20;67.70;;;;;;5036196;28;20220;-44
2022/12/24 06:01:19;;;;;;;2.75;1.70;;;21.20;67.40;;;;;;5029522;28;20406;-44
2022/12/24 06:03:48;;;;;;;2.33;2.08;;;21.30;67.40;;;;;;5031306;28;20623;-42
2022/12/24 06:06:19;;;;;;;2.63;1.95;;;21.30;67.30;;;;;;5034217;28;20197;-43
2022/12/24 06:08:47;;;;;;;2.88;1.60;;;21.40;67.10;;;;;;5025902;28;20205;-44
2022/12/24 06:11:15;;;;;;;3.97;2.25;;;21.40;66.90;;;;;;5033689;28;20227;-45
2022/12/24 06:13:43;;;;;;;5.20;2.20;;;21.50;67.00;;;;;;5034534;28;20270;-46
2022/12/24 06:16:12;;;;;;;2.83;1.90;;;21.40;66.80;;;;;;5036802;28;20195;-42
2022/12/24 06:18:38;;;;;;;3.78;1.88;;;21.40;66.90;;;;;;5033490;28;20306;-44
2022/12/24 06:21:06;;;;;;;2.47;1.70;;;21.40;67.00;;;;;;5029680;28;20274;-42
2022/12/24 06:23:36;;;;;;;2.72;1.60;;;21.40;67.10;;;;;;5032711;28;20718;-44
2022/12/24 06:26:04;;;;;;;3.53;2.58;;;21.30;67.10;;;;;;5035134;28;20251;-43
2022/12/24 06:28:33;;;;;;;2.75;1.33;;;21.30;67.10;;;;;;5033813;28;20196;-43
2022/12/24 06:31:00;;;;;;;5.07;2.22;;;21.30;67.30;;;;;;5029740;28;20233;-41
2022/12/24 06:33:27;;;;;;;2.08;1.70;;;21.30;67.30;;;;;;5026704;28;20287;-46
2022/12/24 06:35:53;;;;;;;2.90;1.92;;;21.40;67.20;;;;;;5031260;28;20189;-43
2022/12/24 06:38:20;;;;;;;3.33;2.42;;;21.40;67.00;;;;;;5030440;28;20217;-45
2022/12/24 06:40:48;;;;;;;2.42;2.22;;;21.50;66.90;;;;;;5032286;28;20194;-44
2022/12/24 06:43:15;;;;;;;2.50;1.75;;;21.50;66.80;;;;;;5031450;28;20192;-45
2022/12/24 06:45:45;;;;;;;3.85;1.90;;;21.60;66.80;;;;;;5034153;28;20212;-46
2022/12/24 06:48:12;;;;;;;3.53;1.85;;;21.60;66.60;;;;;;5024378;28;20567;-44
2022/12/24 06:50:39;;;;;;;2.65;1.67;;;21.70;66.60;;;;;;5031857;28;20204;-46
2022/12/24 06:53:06;;;;;;;3.53;1.90;;;21.70;66.50;;;;;;5028157;28;20254;-45
2022/12/24 06:55:32;;;;;;;4.22;2.00;;;21.60;66.40;;;;;;5029239;28;20228;-43
2022/12/24 06:58:00;;;;;;;3.30;1.75;;;21.60;66.50;;;;;;5034081;28;20247;-46
2022/12/24 07:00:27;;;;;;;2.40;1.60;;;21.60;67.50;;;;;;5030978;28;20204;-43
2022/12/24 07:02:54;;;;;;;2.75;1.70;;;21.50;66.70;;;;;;5031735;28;20200;-44
2022/12/24 07:05:20;;;;;;;3.00;1.58;;;21.50;66.80;;;;;;5032038;28;20196;-42
2022/12/24 07:07:47;;;;;;;2.72;1.70;;;21.50;66.90;;;;;;5028296;28;20204;-45
2022/12/24 07:10:17;;;;;;;2.97;1.73;;;21.50;67.00;;;;;;5028562;28;20239;-44
2022/12/24 07:12:44;;;;;;;2.75;1.90;;;21.50;66.90;;;;;;5029064;28;20621;-44
2022/12/24 07:15:12;;;;;;;1.65;1.42;;;21.50;66.70;;;;;;5030346;28;20197;-45
2022/12/24 07:17:39;;;;;;;3.85;1.60;;;21.60;66.60;;;;;;5025090;28;20276;-45
2022/12/24 07:20:08;;;;;;;2.17;1.55;;;21.60;66.50;;;;;;5031209;28;20638;-45
2022/12/24 07:22:35;;;;;;;1.55;1.40;;;21.60;66.40;;;;;;5030681;28;20200;-48
2022/12/24 07:25:02;;;;;;;2.00;1.30;;;21.70;66.30;;;;;;5029779;28;20215;-44
2022/12/24 07:27:28;;;;;;;2.65;1.60;;;21.70;66.20;;;;;;5029100;28;20553;-44
2022/12/24 07:29:55;;;;;;;2.03;1.50;;;21.70;66.20;;;;;;5031049;28;20627;-43
2022/12/24 07:32:23;;;;;;;1.63;1.27;;;21.70;66.40;;;;;;5030244;28;20284;-48
2022/12/24 07:34:50;;;;;;;2.10;1.42;;;21.70;66.30;;;;;;5033439;28;20200;-44
2022/12/24 07:37:16;;;;;;;2.47;1.45;;;21.70;66.20;;;;;;5030458;28;20196;-43
2022/12/24 07:39:43;;;;;;;1.70;1.55;;;21.70;66.20;;;;;;5026808;28;20278;-45
2022/12/24 07:42:10;;;;;;;3.50;1.80;;;21.70;66.20;;;;;;5027603;28;20241;-44
2022/12/24 07:44:36;;;;;;;5.03;1.30;;;21.70;66.30;;;;;;5028848;28;20201;-43
2022/12/24 07:47:03;;;;;;;3.97;2.38;;;21.80;66.40;;;;;;5028404;28;21022;-45
2022/12/24 07:49:31;;;;;;;1.98;1.25;;;21.80;66.40;;;;;;5030221;28;20212;-45
2022/12/24 07:51:58;;;;;;;2.10;1.35;;;21.80;66.30;;;;;;5024580;28;20284;-45
2022/12/24 07:54:25;;;;;;;2.88;1.80;;;21.80;66.30;;;;;;5022689;28;20204;-43
2022/12/24 07:56:51;;;;;;;2.05;1.40;;;21.80;66.30;;;;;;5030108;28;20616;-47
2022/12/24 07:59:18;;;;;;;2.83;1.23;;;21.80;66.40;;;;;;5031369;28;20800;-45
2022/12/24 08:01:45;;;;;;;2.88;1.63;;;21.80;66.30;;;;;;5026964;28;20278;-44
2022/12/24 08:04:12;;;;;;;2.38;1.40;;;21.70;66.20;;;;;;5029285;28;20195;-48
2022/12/24 08:06:40;;;;;;;2.63;1.40;;;21.80;66.40;;;;;;5027219;28;20201;-46
2022/12/24 08:09:07;;;;;;;2.10;1.30;;;21.80;66.40;;;;;;5024335;28;20254;-44
2022/12/24 08:11:33;;;;;;;2.35;1.25;;;21.80;66.40;;;;;;5025456;28;20210;-43
2022/12/24 08:14:00;;;;;;;3.47;1.90;;;21.80;66.40;;;;;;5029830;28;20193;-47
2022/12/24 08:16:27;;;;;;;1.67;1.30;;;21.80;66.40;;;;;;5029137;28;20470;-44
2022/12/24 08:18:54;;;;;;;2.05;1.25;;;21.80;66.40;;;;;;5028358;28;20229;-43
2022/12/24 08:21:20;;;;;;;2.38;1.45;;;21.80;66.40;;;;;;5030577;28;20245;-49
2022/12/24 08:23:48;;;;;;;2.05;1.70;;;21.80;66.70;;;;;;5025627;28;20680;-46
2022/12/24 08:26:15;;;;;;;1.33;1.20;;;21.80;66.70;;;;;;5025157;28;20719;-45
2022/12/24 08:28:41;;;;;;;1.95;1.40;;;21.70;66.70;;;;;;5030115;28;20463;-44
2022/12/24 08:31:08;;;;;;;2.33;1.43;;;21.60;66.70;;;;;;5029180;28;20246;-45
2022/12/24 08:33:35;;;;;;;2.28;1.20;;;21.70;66.90;;;;;;5025207;28;20459;-49
2022/12/24 08:36:02;;;;;;;1.85;1.35;;;21.70;66.90;;;;;;5023402;28;20251;-45
2022/12/24 08:38:29;;;;;;;2.85;1.45;;;21.60;66.70;;;;;;5019121;28;20283;-46
2022/12/24 08:40:57;;;;;;;3.55;1.50;;;21.70;66.80;;;;;;5025842;28;20193;-42
2022/12/24 08:43:25;;;;;;;2.40;1.50;;;21.70;66.70;;;;;;5033688;28;20247;-45
2022/12/24 08:45:52;;;;;;;2.00;1.40;;;21.70;66.70;;;;;;5019900;28;20204;-44
2022/12/24 08:48:19;;;;;;;1.90;1.60;;;21.80;66.70;;;;;;5030813;28;20204;-46
2022/12/24 08:50:47;;;;;;;1.50;1.20;;;21.80;66.60;;;;;;5035502;28;20207;-44
2022/12/24 08:53:13;;;;;;;1.45;1.05;;;21.80;66.50;;;;;;5019185;28;20206;-46
2022/12/24 08:55:41;;;;;;;3.65;1.42;;;21.80;66.50;;;;;;5020854;28;20200;-43
2022/12/24 08:58:09;;;;;;;2.20;1.27;;;21.80;66.50;;;;;;5029766;28;20197;-46
2022/12/24 09:00:35;;;;;;;2.50;1.67;;;21.80;66.50;;;;;;5027218;28;20235;-49
2022/12/24 09:03:02;;;;;;;2.33;1.27;;;21.80;66.60;;;;;;5025951;28;20613;-46
2022/12/24 09:05:29;;;;;;;2.88;1.48;;;21.70;66.60;;;;;;5031848;28;20658;-45
2022/12/24 09:07:55;;;;;;;3.53;1.23;;;21.70;66.70;;;;;;5021998;28;20193;-43
2022/12/24 09:10:23;;;;;;;1.48;0.90;;;21.70;66.70;;;;;;5030851;28;20200;-44
2022/12/24 09:12:49;;;;;;;2.30;1.38;;;21.70;66.60;;;;;;5033875;28;20190;-45
2022/12/24 09:15:18;;;;;;;1.95;1.17;;;21.70;67.30;;;;;;5031137;28;20189;-46
2022/12/24 09:17:45;;;;;;;1.63;1.30;;;21.80;66.70;;;;;;5016369;28;20201;-46
2022/12/24 09:20:11;;;;;;;3.03;1.25;;;21.80;66.50;;;;;;5034830;28;20235;-44
2022/12/24 09:22:40;;;;;;;2.33;1.50;;;21.80;66.40;;;;;;5031894;28;20201;-47
2022/12/24 09:25:09;;;;;;;2.05;1.30;;;21.80;66.50;;;;;;5030859;28;20604;-45
2022/12/24 09:27:36;;;;;;;1.50;1.20;;;21.80;66.50;;;;;;5032660;28;20649;-46
2022/12/24 09:30:03;;;;;;;1.55;1.27;;;21.70;66.60;;;;;;5036148;28;20256;-45
2022/12/24 09:32:31;;;;;;;2.10;1.30;;;21.60;67.50;;;;;;5024831;28;20202;-42
2022/12/24 09:34:57;;;;;;;2.22;1.40;;;21.70;67.90;;;;;;5034534;28;20236;-44
2022/12/24 09:37:24;;;;;;;2.65;1.30;;;21.70;68.80;;;;;;5026839;28;20215;-46
2022/12/24 09:39:51;;;;;;;3.08;1.23;;;21.60;68.40;;;;;;5028887;28;20624;-46
2022/12/24 09:42:28;;;;;;;2.35;1.67;;;21.50;69.00;;;;;;5023130;28;20189;-44
2022/12/24 09:45:02;;;;;;;3.65;2.20;;;21.50;69.50;;;;;;5034563;28;20200;-44
2022/12/24 09:47:37;;;;;;;3.50;2.35;;;21.60;69.60;;;;;;5028286;28;20196;-43
2022/12/24 09:50:18;;;;;;;8.18;1.65;;;21.60;69.50;;;;;;5025484;28;20208;-45
2022/12/24 09:52:46;;;;;;;2.80;1.50;;;21.50;70.00;;;;;;5027155;28;20566;-45
2022/12/24 09:55:20;;;;;;;2.00;1.60;;;21.70;70.00;;;;;;5029061;28;20603;-48
2022/12/24 09:57:49;;;;;;;3.97;1.65;;;21.70;69.80;;;;;;5028503;28;20206;-49
2022/12/24 10:00:21;;;;;;;5.80;1.70;;;21.80;69.90;;;;;;5038810;28;20219;-44
2022/12/24 10:02:49;;;;;;;1.55;1.45;;;21.90;69.40;;;;;;5024996;28;20363;-46
2022/12/24 10:05:18;;;;;;;3.63;1.42;;;21.90;69.20;;;;;;5026027;28;20250;-44
2022/12/24 10:07:53;;;;;;;2.70;1.25;;;21.90;69.10;;;;;;5024088;28;20603;-46
2022/12/24 10:10:30;;;;;;;4.25;1.75;;;22.00;69.00;;;;;;5028491;28;20550;-46
2022/12/24 10:13:04;;;;;;;4.25;1.70;;;22.00;69.00;;;;;;5025473;28;20291;-47
2022/12/24 10:15:37;;;;;;;1.58;1.10;;;22.00;69.00;;;;;;5032049;28;20201;-46
2022/12/24 10:18:16;;;;;;;3.08;1.63;;;22.00;68.80;;;;;;5023553;28;20658;-49
2022/12/24 10:20:47;;;;;;;4.20;1.67;;;22.00;68.80;;;;;;5031204;28;20275;-51
2022/12/24 10:23:20;;;;;;;2.30;1.17;;;22.00;68.70;;;;;;5024179;28;20224;-47
2022/12/24 10:25:53;;;;;;;2.60;1.50;;;22.00;68.70;;;;;;5026574;28;20454;-46
2022/12/24 10:28:23;;;;;;;2.25;1.23;;;21.90;68.70;;;;;;5032038;28;20553;-47
2022/12/24 10:30:57;;;;;;;3.10;1.80;;;21.90;68.70;;;;;;5031082;28;20223;-45
2022/12/24 10:33:32;;;;;;;1.92;1.38;;;21.90;68.80;;;;;;5027904;28;20263;-45
2022/12/24 10:35:58;;;;;;;2.88;1.70;;;21.80;69.40;;;;;;5024832;28;20204;-49
2022/12/24 10:38:25;;;;;;;3.17;1.60;;;21.80;68.90;;;;;;5017971;28;20649;-49
2022/12/24 10:40:54;;;;;;;2.85;1.88;;;21.80;68.90;;;;;;5030130;28;20274;-48
2022/12/24 10:43:23;;;;;;;3.97;1.90;;;21.80;68.80;;;;;;5032313;28;20215;-48
2022/12/24 10:45:53;;;;;;;5.22;1.50;;;21.80;68.80;;;;;;5033344;28;20204;-43
2022/12/24 10:48:25;;;;;;;2.70;1.60;;;21.80;68.80;;;;;;5022587;28;20202;-44
2022/12/24 10:50:58;;;;;;;2.90;1.33;;;21.80;68.80;;;;;;5036049;28;20246;-45
2022/12/24 10:53:33;;;;;;;1.20;1.00;;;21.80;68.70;;;;;;5022290;28;20247;-43
2022/12/24 10:56:05;;;;;;;2.00;1.48;;;21.80;68.60;;;;;;5030117;28;20195;-44
2022/12/24 10:58:33;;;;;;;1.73;1.30;;;21.90;68.50;;;;;;5033360;28;20542;-45
2022/12/24 11:01:00;;;;;;;2.95;1.45;;;21.90;68.60;;;;;;5028195;28;20189;-44
2022/12/24 11:03:30;;;;;;;2.22;1.38;;;21.90;68.40;;;;;;5033456;28;20204;-44
2022/12/24 11:06:08;;;;;;;1.50;1.25;;;22.00;68.20;;;;;;5031638;28;20545;-44
2022/12/24 11:08:36;;;;;;;1.70;1.30;;;22.00;68.00;;;;;;5027377;28;20593;-46
2022/12/24 11:11:05;;;;;;;4.35;2.08;;;22.00;68.00;;;;;;5030872;28;20255;-44
2022/12/24 11:13:35;;;;;;;2.40;1.30;;;22.00;68.10;;;;;;5028262;28;20197;-43
2022/12/24 11:16:07;;;;;;;2.50;1.57;;;22.00;68.50;;;;;;5027956;28;20254;-47
2022/12/24 11:18:37;;;;;;;5.10;1.67;;;21.90;68.50;;;;;;5028190;28;20492;-46
2022/12/24 11:21:06;;;;;;;3.42;1.40;;;21.90;68.50;;;;;;5028561;28;20495;-48
2022/12/24 11:23:33;;;;;;;2.55;1.92;;;21.80;68.70;;;;;;5024427;28;20193;-48
2022/12/24 11:26:00;;;;;;;2.87;1.47;;;21.80;68.90;;;;;;5028693;28;20217;-48
2022/12/24 11:28:29;;;;;;;2.63;1.27;;;21.70;68.80;;;;;;5022782;28;20461;-46
2022/12/24 11:31:02;;;;;;;2.50;1.48;;;21.80;69.40;;;;;;5023940;28;20887;-46
2022/12/24 11:33:30;;;;;;;2.28;1.45;;;21.80;69.60;;;;;;5029902;28;20703;-46
2022/12/24 11:36:02;;;;;;;3.88;1.80;;;21.90;69.60;;;;;;5024554;28;20659;-47
2022/12/24 11:38:32;;;;;;;2.20;1.20;;;22.10;69.60;;;;;;5024537;28;20631;-46
2022/12/24 11:41:02;;;;;;;3.45;1.45;;;22.20;69.30;;;;;;5024756;28;20285;-45
2022/12/24 11:43:44;;;;;;;1.98;1.13;;;22.30;69.10;;;;;;5029838;28;20211;-45
2022/12/24 11:46:17;;;;;;;3.60;1.45;;;22.40;69.00;;;;;;5033089;28;20316;-44
2022/12/24 11:48:44;;;;;;;3.78;1.55;;;22.50;68.70;;;;;;5030168;28;20197;-44
2022/12/24 11:51:24;;;;;;;2.23;1.50;;;22.60;68.50;;;;;;5027290;28;20235;-43
2022/12/24 11:54:00;;;;;;;3.60;1.40;;;22.70;68.40;;;;;;5025813;28;20622;-43
2022/12/24 11:56:36;;;;;;;3.80;1.53;;;22.70;68.40;;;;;;5030305;28;20197;-44
2022/12/24 11:59:10;;;;;;;3.00;1.10;;;22.70;68.40;;;;;;5022932;28;20435;-44
2022/12/24 12:01:39;;;;;;;1.87;1.67;;;22.70;68.70;;;;;;5029053;28;20521;-44
2022/12/24 12:04:14;;;;;;;2.53;1.20;;;22.70;68.50;;;;;;5011200;28;20445;-45
2022/12/24 12:06:47;;;;;;;2.27;1.47;;;22.70;68.30;;;;;;5026061;28;20962;-50
2022/12/24 12:09:21;;;;;;;2.60;1.63;;;22.70;68.90;;;;;;5024315;28;20463;-45
2022/12/24 12:11:53;;;;;;;2.80;1.70;;;22.70;69.00;;;;;;5025462;28;20468;-43
2022/12/24 12:14:25;;;;;;;4.30;1.20;;;22.70;69.00;;;;;;5017899;28;20497;-45
2022/12/24 12:17:02;;;;;;;1.92;1.17;;;22.70;68.90;;;;;;5028111;28;20247;-43
2022/12/24 12:19:35;;;;;;;2.50;1.60;;;22.70;68.90;;;;;;5027612;28;20638;-42
2022/12/24 12:22:05;;;;;;;2.97;1.27;;;22.70;68.90;;;;;;5031539;28;20494;-46
2022/12/24 12:24:38;;;;;;;2.10;1.30;;;22.70;69.00;;;;;;5022435;28;20242;-45
2022/12/24 12:27:12;;;;;;;2.60;1.10;;;22.60;69.00;;;;;;5026639;28;20495;-47
2022/12/24 12:29:45;;;;;;;1.83;1.27;;;22.60;68.30;;;;;;5029160;28;20476;-44
2022/12/24 12:32:16;;;;;;;1.58;1.17;;;22.60;69.10;;;;;;5023074;28;20463;-44
2022/12/24 12:34:46;;;;;;;3.10;1.10;;;22.60;69.20;;;;;;5021596;28;20197;-44
2022/12/24 12:37:16;;;;;;;2.20;1.70;;;22.60;69.30;;;;;;5018519;28;20495;-44
2022/12/24 12:39:44;;;;;;;3.67;1.80;;;22.50;69.20;;;;;;5027511;28;21044;-44
2022/12/24 12:42:20;;;;;;;3.53;1.05;;;22.50;69.30;;;;;;5030058;28;20246;-45
2022/12/24 12:45:02;;;;;;;2.00;1.30;;;22.40;69.60;;;;;;5029387;28;20213;-51
2022/12/24 12:47:53;;;;;;;3.07;1.20;;;22.40;69.90;;;;;;5016700;28;20466;-48
2022/12/24 12:50:26;;;;;;;3.53;1.47;;;22.40;69.80;;;;;;5023286;28;20462;-46
2022/12/24 12:53:12;;;;;;;2.87;1.50;;;22.50;69.90;;;;;;5030356;28;20534;-45
2022/12/24 12:55:49;;;;;;;1.98;1.30;;;22.50;69.90;;;;;;5026126;28;20474;-49
2022/12/24 12:58:23;;;;;;;1.97;1.30;;;22.50;69.80;;;;;;5030502;28;20673;-44
2022/12/24 13:00:55;;;;;;;3.10;1.55;;;22.60;69.70;;;;;;5035194;28;20485;-44
2022/12/24 13:03:44;;;;;;;4.40;1.77;;;22.60;69.90;;;;;;5028380;28;20201;-45